sensor_id;sensor_type;location;lat;lon;timestamp;temperature;humidity
60309;DHT22;50313;52.894;6.492;2023-06-04T00:01:49;10.70;99.90
60309;DHT22;50313;52.894;6.492;2023-06-04T00:04:20;10.70;99.90
60309;DHT22;50313;52.894;6.492;2023-06-04T00:06:47;10.60;99.90
60309;DHT22;50313;52.894;6.492;2023-06-04T00:09:13;10.60;99.90
60309;DHT22;50313;52.894;6.492;2023-06-04T00:11:39;10.60;99.90
60309;DHT22;50313;52.894;6.492;2023-06-04T00:14:10;10.50;99.90
60309;DHT22;50313;52.894;6.492;2023-06-04T00:16:38;10.60;99.90
60309;DHT22;50313;52.894;6.492;2023-06-04T00:19:08;10.50;99.90
60309;DHT22;50313;52.894;6.492;2023-06-04T00:21:36;10.40;99.90
60309;DHT22;50313;52.894;6.492;2023-06-04T00:24:04;10.40;99.90
60309;DHT22;50313;52.894;6.492;2023-06-04T00:26:30;10.40;99.90
60309;DHT22;50313;52.894;6.492;2023-06-04T00:28:58;10.40;99.90
60309;DHT22;50313;52.894;6.492;2023-06-04T00:31:24;10.30;99.90
60309;DHT22;50313;52.894;6.492;2023-06-04T00:33:50;10.30;99.90
60309;DHT22;50313;52.894;6.492;2023-06-04T00:36:17;10.20;99.90
60309;DHT22;50313;52.894;6.492;2023-06-04T00:38:43;10.10;99.90
60309;DHT22;50313;52.894;6.492;2023-06-04T00:41:14;10.00;99.90
60309;DHT22;50313;52.894;6.492;2023-06-04T00:43:43;9.90;99.90
60309;DHT22;50313;52.894;6.492;2023-06-04T00:46:14;9.90;99.90
60309;DHT22;50313;52.894;6.492;2023-06-04T00:48:46;9.80;99.90
60309;DHT22;50313;52.894;6.492;2023-06-04T00:51:14;9.70;99.90
60309;DHT22;50313;52.894;6.492;2023-06-04T00:53:40;9.70;99.90
60309;DHT22;50313;52.894;6.492;2023-06-04T00:56:06;9.60;99.90
60309;DHT22;50313;52.894;6.492;2023-06-04T00:58:37;9.60;99.90
60309;DHT22;50313;52.894;6.492;2023-06-04T01:04:27;9.50;99.90
60309;DHT22;50313;52.894;6.492;2023-06-04T01:06:59;9.50;99.90
60309;DHT22;50313;52.894;6.492;2023-06-04T01:09:29;9.50;99.90
60309;DHT22;50313;52.894;6.492;2023-06-04T01:11:56;9.40;99.90
60309;DHT22;50313;52.894;6.492;2023-06-04T01:14:24;9.40;99.90
60309;DHT22;50313;52.894;6.492;2023-06-04T01:16:58;9.40;99.90
60309;DHT22;50313;52.894;6.492;2023-06-04T01:20:05;9.30;99.90
60309;DHT22;50313;52.894;6.492;2023-06-04T01:25:25;9.30;99.90
60309;DHT22;50313;52.894;6.492;2023-06-04T01:28:07;9.20;99.90
60309;DHT22;50313;52.894;6.492;2023-06-04T01:30:35;9.10;99.90
60309;DHT22;50313;52.894;6.492;2023-06-04T01:33:10;9.10;99.90
60309;DHT22;50313;52.894;6.492;2023-06-04T01:35:43;9.10;99.90
60309;DHT22;50313;52.894;6.492;2023-06-04T01:38:09;9.00;99.90
60309;DHT22;50313;52.894;6.492;2023-06-04T01:40:50;9.00;99.90
60309;DHT22;50313;52.894;6.492;2023-06-04T01:43:16;8.90;99.90
60309;DHT22;50313;52.894;6.492;2023-06-04T01:45:42;8.90;99.90
60309;DHT22;50313;52.894;6.492;2023-06-04T01:48:10;8.80;99.90
60309;DHT22;50313;52.894;6.492;2023-06-04T01:50:38;8.80;99.90
60309;DHT22;50313;52.894;6.492;2023-06-04T01:53:13;8.80;99.90
60309;DHT22;50313;52.894;6.492;2023-06-04T01:55:48;8.80;99.90
60309;DHT22;50313;52.894;6.492;2023-06-04T01:58:19;8.80;99.90
60309;DHT22;50313;52.894;6.492;2023-06-04T02:00:57;8.80;99.90
60309;DHT22;50313;52.894;6.492;2023-06-04T02:03:31;8.80;99.90
60309;DHT22;50313;52.894;6.492;2023-06-04T02:06:04;8.70;99.90
60309;DHT22;50313;52.894;6.492;2023-06-04T02:08:33;8.70;99.90
60309;DHT22;50313;52.894;6.492;2023-06-04T02:10:59;8.70;99.90
60309;DHT22;50313;52.894;6.492;2023-06-04T02:13:25;8.70;99.90
60309;DHT22;50313;52.894;6.492;2023-06-04T02:15:51;8.70;99.90
60309;DHT22;50313;52.894;6.492;2023-06-04T02:18:19;8.70;99.90
60309;DHT22;50313;52.894;6.492;2023-06-04T02:20:49;8.70;99.90
60309;DHT22;50313;52.894;6.492;2023-06-04T02:23:27;8.70;99.90
60309;DHT22;50313;52.894;6.492;2023-06-04T02:25:55;8.60;99.90
60309;DHT22;50313;52.894;6.492;2023-06-04T02:28:21;8.70;99.90
60309;DHT22;50313;52.894;6.492;2023-06-04T02:30:51;8.70;99.90
60309;DHT22;50313;52.894;6.492;2023-06-04T02:33:17;8.60;99.90
60309;DHT22;50313;52.894;6.492;2023-06-04T02:35:45;8.60;99.90
60309;DHT22;50313;52.894;6.492;2023-06-04T02:38:11;8.60;99.90
60309;DHT22;50313;52.894;6.492;2023-06-04T02:40:38;8.60;99.90
60309;DHT22;50313;52.894;6.492;2023-06-04T02:43:04;8.60;99.90
60309;DHT22;50313;52.894;6.492;2023-06-04T02:45:29;8.60;99.90
60309;DHT22;50313;52.894;6.492;2023-06-04T02:47:58;8.60;99.90
60309;DHT22;50313;52.894;6.492;2023-06-04T02:50:26;8.60;99.90
60309;DHT22;50313;52.894;6.492;2023-06-04T02:52:52;8.60;99.90
60309;DHT22;50313;52.894;6.492;2023-06-04T02:55:23;8.60;99.90
60309;DHT22;50313;52.894;6.492;2023-06-04T02:57:51;8.70;99.90
60309;DHT22;50313;52.894;6.492;2023-06-04T03:00:19;8.70;99.90
60309;DHT22;50313;52.894;6.492;2023-06-04T03:02:46;8.80;99.90
60309;DHT22;50313;52.894;6.492;2023-06-04T03:05:14;8.70;99.90
60309;DHT22;50313;52.894;6.492;2023-06-04T03:07:47;8.70;99.90
60309;DHT22;50313;52.894;6.492;2023-06-04T03:10:16;8.70;99.90
60309;DHT22;50313;52.894;6.492;2023-06-04T03:12:42;8.70;99.90
60309;DHT22;50313;52.894;6.492;2023-06-04T03:15:11;8.70;99.90
60309;DHT22;50313;52.894;6.492;2023-06-04T03:17:40;8.60;99.90
60309;DHT22;50313;52.894;6.492;2023-06-04T03:20:15;8.70;99.90
60309;DHT22;50313;52.894;6.492;2023-06-04T03:22:41;8.60;99.90
60309;DHT22;50313;52.894;6.492;2023-06-04T03:25:07;8.60;99.90
60309;DHT22;50313;52.894;6.492;2023-06-04T03:27:35;8.60;99.90
60309;DHT22;50313;52.894;6.492;2023-06-04T03:30:02;8.60;99.90
60309;DHT22;50313;52.894;6.492;2023-06-04T03:32:28;8.60;99.90
60309;DHT22;50313;52.894;6.492;2023-06-04T03:34:54;8.60;99.90
60309;DHT22;50313;52.894;6.492;2023-06-04T03:37:23;8.60;99.90
60309;DHT22;50313;52.894;6.492;2023-06-04T03:39:49;8.60;99.90
60309;DHT22;50313;52.894;6.492;2023-06-04T03:42:15;8.60;99.90
60309;DHT22;50313;52.894;6.492;2023-06-04T03:44:44;8.60;99.90
60309;DHT22;50313;52.894;6.492;2023-06-04T03:47:10;8.70;99.90
60309;DHT22;50313;52.894;6.492;2023-06-04T03:49:36;8.70;99.90
60309;DHT22;50313;52.894;6.492;2023-06-04T03:52:09;8.60;99.90
60309;DHT22;50313;52.894;6.492;2023-06-04T03:54:37;8.60;99.90
60309;DHT22;50313;52.894;6.492;2023-06-04T03:57:03;8.60;99.90
60309;DHT22;50313;52.894;6.492;2023-06-04T03:59:32;8.70;99.90
60309;DHT22;50313;52.894;6.492;2023-06-04T04:02:00;8.60;99.90
60309;DHT22;50313;52.894;6.492;2023-06-04T04:04:28;8.70;99.90
60309;DHT22;50313;52.894;6.492;2023-06-04T04:06:54;8.70;99.90
60309;DHT22;50313;52.894;6.492;2023-06-04T04:09:27;8.70;99.90
60309;DHT22;50313;52.894;6.492;2023-06-04T04:11:59;8.70;99.90
60309;DHT22;50313;52.894;6.492;2023-06-04T04:14:27;8.80;99.90
60309;DHT22;50313;52.894;6.492;2023-06-04T04:16:55;8.70;99.90
60309;DHT22;50313;52.894;6.492;2023-06-04T04:19:22;8.70;99.90
60309;DHT22;50313;52.894;6.492;2023-06-04T04:21:50;8.90;99.90
60309;DHT22;50313;52.894;6.492;2023-06-04T04:24:26;8.90;99.90
60309;DHT22;50313;52.894;6.492;2023-06-04T04:26:55;8.90;99.90
60309;DHT22;50313;52.894;6.492;2023-06-04T04:29:21;9.00;99.90
60309;DHT22;50313;52.894;6.492;2023-06-04T04:31:54;9.00;99.90
60309;DHT22;50313;52.894;6.492;2023-06-04T04:34:25;9.10;99.90
60309;DHT22;50313;52.894;6.492;2023-06-04T04:36:51;9.10;99.90
60309;DHT22;50313;52.894;6.492;2023-06-04T04:39:28;9.20;99.90
60309;DHT22;50313;52.894;6.492;2023-06-04T04:42:00;9.20;99.90
60309;DHT22;50313;52.894;6.492;2023-06-04T04:44:28;9.30;99.90
60309;DHT22;50313;52.894;6.492;2023-06-04T04:47:00;9.50;99.90
60309;DHT22;50313;52.894;6.492;2023-06-04T04:49:31;9.60;99.90
60309;DHT22;50313;52.894;6.492;2023-06-04T04:51:58;9.70;99.90
60309;DHT22;50313;52.894;6.492;2023-06-04T04:54:23;9.60;99.90
60309;DHT22;50313;52.894;6.492;2023-06-04T04:56:52;9.80;99.90
60309;DHT22;50313;52.894;6.492;2023-06-04T04:59:18;10.00;99.90
60309;DHT22;50313;52.894;6.492;2023-06-04T05:01:49;10.00;99.90
60309;DHT22;50313;52.894;6.492;2023-06-04T05:04:14;10.10;99.90
60309;DHT22;50313;52.894;6.492;2023-06-04T05:06:46;10.20;99.90
60309;DHT22;50313;52.894;6.492;2023-06-04T05:09:12;10.30;99.90
60309;DHT22;50313;52.894;6.492;2023-06-04T05:11:37;10.40;99.90
60309;DHT22;50313;52.894;6.492;2023-06-04T05:14:03;10.40;99.90
60309;DHT22;50313;52.894;6.492;2023-06-04T05:16:29;10.50;99.90
60309;DHT22;50313;52.894;6.492;2023-06-04T05:18:56;10.60;99.90
60309;DHT22;50313;52.894;6.492;2023-06-04T05:21:25;10.70;99.90
60309;DHT22;50313;52.894;6.492;2023-06-04T05:24:02;10.80;99.90
60309;DHT22;50313;52.894;6.492;2023-06-04T05:26:31;10.90;99.90
60309;DHT22;50313;52.894;6.492;2023-06-04T05:29:03;10.90;99.90
60309;DHT22;50313;52.894;6.492;2023-06-04T05:31:29;11.10;99.90
60309;DHT22;50313;52.894;6.492;2023-06-04T05:34:04;11.10;99.90
60309;DHT22;50313;52.894;6.492;2023-06-04T05:36:38;11.20;99.90
60309;DHT22;50313;52.894;6.492;2023-06-04T05:39:07;11.30;99.90
60309;DHT22;50313;52.894;6.492;2023-06-04T05:41:42;11.50;99.90
60309;DHT22;50313;52.894;6.492;2023-06-04T05:44:08;11.50;99.90
60309;DHT22;50313;52.894;6.492;2023-06-04T05:46:36;11.70;99.90
60309;DHT22;50313;52.894;6.492;2023-06-04T05:49:02;11.70;99.90
60309;DHT22;50313;52.894;6.492;2023-06-04T05:51:28;11.90;99.90
60309;DHT22;50313;52.894;6.492;2023-06-04T05:53:54;11.90;99.90
60309;DHT22;50313;52.894;6.492;2023-06-04T05:56:22;11.90;99.90
60309;DHT22;50313;52.894;6.492;2023-06-04T05:58:52;12.10;99.90
60309;DHT22;50313;52.894;6.492;2023-06-04T06:01:20;12.00;99.90
60309;DHT22;50313;52.894;6.492;2023-06-04T06:03:48;12.10;99.90
60309;DHT22;50313;52.894;6.492;2023-06-04T06:06:14;12.20;99.90
60309;DHT22;50313;52.894;6.492;2023-06-04T06:08:40;12.40;99.90
60309;DHT22;50313;52.894;6.492;2023-06-04T06:11:06;12.50;99.90
60309;DHT22;50313;52.894;6.492;2023-06-04T06:13:33;12.40;99.90
60309;DHT22;50313;52.894;6.492;2023-06-04T06:16:01;12.60;99.90
60309;DHT22;50313;52.894;6.492;2023-06-04T06:18:27;12.70;99.90
60309;DHT22;50313;52.894;6.492;2023-06-04T06:20:53;12.80;99.90
60309;DHT22;50313;52.894;6.492;2023-06-04T06:23:19;12.90;99.90
60309;DHT22;50313;52.894;6.492;2023-06-04T06:25:47;12.90;99.90
60309;DHT22;50313;52.894;6.492;2023-06-04T06:28:18;13.00;99.90
60309;DHT22;50313;52.894;6.492;2023-06-04T06:30:46;13.00;99.90
60309;DHT22;50313;52.894;6.492;2023-06-04T06:33:20;13.20;99.90
60309;DHT22;50313;52.894;6.492;2023-06-04T06:36:12;13.30;99.90
60309;DHT22;50313;52.894;6.492;2023-06-04T06:38:46;13.30;99.90
60309;DHT22;50313;52.894;6.492;2023-06-04T06:41:14;13.50;99.90
60309;DHT22;50313;52.894;6.492;2023-06-04T06:43:44;13.70;99.90
60309;DHT22;50313;52.894;6.492;2023-06-04T06:46:25;13.80;99.90
60309;DHT22;50313;52.894;6.492;2023-06-04T06:49:01;13.90;99.90
60309;DHT22;50313;52.894;6.492;2023-06-04T06:51:27;14.10;99.90
60309;DHT22;50313;52.894;6.492;2023-06-04T06:53:58;14.20;99.90
60309;DHT22;50313;52.894;6.492;2023-06-04T06:56:26;14.40;99.90
60309;DHT22;50313;52.894;6.492;2023-06-04T06:58:52;14.60;99.90
60309;DHT22;50313;52.894;6.492;2023-06-04T07:01:39;14.70;99.90
60309;DHT22;50313;52.894;6.492;2023-06-04T07:04:07;15.00;99.90
60309;DHT22;50313;52.894;6.492;2023-06-04T07:06:34;15.20;99.90
60309;DHT22;50313;52.894;6.492;2023-06-04T07:09:02;15.30;99.90
60309;DHT22;50313;52.894;6.492;2023-06-04T07:11:28;15.30;99.90
60309;DHT22;50313;52.894;6.492;2023-06-04T07:13:54;15.30;99.90
60309;DHT22;50313;52.894;6.492;2023-06-04T07:16:31;15.70;99.90
60309;DHT22;50313;52.894;6.492;2023-06-04T07:19:00;15.90;99.90
60309;DHT22;50313;52.894;6.492;2023-06-04T07:21:26;16.10;99.90
60309;DHT22;50313;52.894;6.492;2023-06-04T07:23:57;16.30;99.90
60309;DHT22;50313;52.894;6.492;2023-06-04T07:26:24;16.30;99.90
60309;DHT22;50313;52.894;6.492;2023-06-04T07:28:52;16.20;99.90
60309;DHT22;50313;52.894;6.492;2023-06-04T07:31:20;16.40;99.90
60309;DHT22;50313;52.894;6.492;2023-06-04T07:33:50;16.60;99.90
60309;DHT22;50313;52.894;6.492;2023-06-04T07:36:19;16.60;99.90
60309;DHT22;50313;52.894;6.492;2023-06-04T07:38:48;16.90;99.90
60309;DHT22;50313;52.894;6.492;2023-06-04T07:41:14;16.90;99.90
60309;DHT22;50313;52.894;6.492;2023-06-04T07:43:45;16.80;99.90
60309;DHT22;50313;52.894;6.492;2023-06-04T07:46:11;17.10;99.90
60309;DHT22;50313;52.894;6.492;2023-06-04T07:48:37;17.00;99.90
60309;DHT22;50313;52.894;6.492;2023-06-04T07:51:02;17.20;99.90
60309;DHT22;50313;52.894;6.492;2023-06-04T07:53:32;17.40;99.90
60309;DHT22;50313;52.894;6.492;2023-06-04T07:55:58;17.10;98.80
60309;DHT22;50313;52.894;6.492;2023-06-04T07:58:29;17.30;99.90
60309;DHT22;50313;52.894;6.492;2023-06-04T08:00:55;17.10;99.50
60309;DHT22;50313;52.894;6.492;2023-06-04T08:03:27;17.30;98.40
60309;DHT22;50313;52.894;6.492;2023-06-04T08:05:55;17.20;97.10
60309;DHT22;50313;52.894;6.492;2023-06-04T08:08:24;17.20;93.90
60309;DHT22;50313;52.894;6.492;2023-06-04T08:10:50;17.30;94.10
60309;DHT22;50313;52.894;6.492;2023-06-04T08:13:18;17.50;97.00
60309;DHT22;50313;52.894;6.492;2023-06-04T08:15:46;17.40;95.70
60309;DHT22;50313;52.894;6.492;2023-06-04T08:18:16;17.60;96.50
60309;DHT22;50313;52.894;6.492;2023-06-04T08:20:45;17.70;95.50
60309;DHT22;50313;52.894;6.492;2023-06-04T08:23:11;17.90;94.40
60309;DHT22;50313;52.894;6.492;2023-06-04T08:25:40;18.00;94.50
60309;DHT22;50313;52.894;6.492;2023-06-04T08:28:15;18.30;92.90
60309;DHT22;50313;52.894;6.492;2023-06-04T08:30:42;18.20;92.30
60309;DHT22;50313;52.894;6.492;2023-06-04T08:33:10;18.10;92.40
60309;DHT22;50313;52.894;6.492;2023-06-04T08:35:39;18.40;91.60
60309;DHT22;50313;52.894;6.492;2023-06-04T08:38:05;18.20;91.50
60309;DHT22;50313;52.894;6.492;2023-06-04T08:40:30;18.20;92.20
60309;DHT22;50313;52.894;6.492;2023-06-04T08:43:00;18.30;94.30
60309;DHT22;50313;52.894;6.492;2023-06-04T08:45:26;18.30;93.90
60309;DHT22;50313;52.894;6.492;2023-06-04T08:47:55;18.40;91.90
60309;DHT22;50313;52.894;6.492;2023-06-04T08:50:28;18.70;91.20
60309;DHT22;50313;52.894;6.492;2023-06-04T08:52:55;18.90;90.60
60309;DHT22;50313;52.894;6.492;2023-06-04T08:55:23;19.00;90.30
60309;DHT22;50313;52.894;6.492;2023-06-04T08:57:52;18.90;88.40
60309;DHT22;50313;52.894;6.492;2023-06-04T09:00:19;18.90;90.30
60309;DHT22;50313;52.894;6.492;2023-06-04T09:02:46;18.90;89.00
60309;DHT22;50313;52.894;6.492;2023-06-04T09:05:19;18.90;85.60
60309;DHT22;50313;52.894;6.492;2023-06-04T09:07:52;19.10;84.00
60309;DHT22;50313;52.894;6.492;2023-06-04T09:10:27;19.30;85.90
60309;DHT22;50313;52.894;6.492;2023-06-04T09:13:01;18.80;84.40
60309;DHT22;50313;52.894;6.492;2023-06-04T09:15:44;19.10;86.60
60309;DHT22;50313;52.894;6.492;2023-06-04T09:18:12;19.40;83.80
60309;DHT22;50313;52.894;6.492;2023-06-04T09:20:45;19.20;81.30
60309;DHT22;50313;52.894;6.492;2023-06-04T09:23:16;19.30;84.70
60309;DHT22;50313;52.894;6.492;2023-06-04T09:25:43;19.20;82.60
60309;DHT22;50313;52.894;6.492;2023-06-04T09:28:11;19.80;82.40
60309;DHT22;50313;52.894;6.492;2023-06-04T09:30:51;20.10;83.10
60309;DHT22;50313;52.894;6.492;2023-06-04T09:33:22;19.80;79.00
60309;DHT22;50313;52.894;6.492;2023-06-04T09:35:56;19.70;77.30
60309;DHT22;50313;52.894;6.492;2023-06-04T09:38:40;19.80;81.10
60309;DHT22;50313;52.894;6.492;2023-06-04T09:41:12;19.70;79.50
60309;DHT22;50313;52.894;6.492;2023-06-04T09:43:38;19.90;77.70
60309;DHT22;50313;52.894;6.492;2023-06-04T09:46:16;19.60;76.70
60309;DHT22;50313;52.894;6.492;2023-06-04T09:48:44;19.70;75.30
60309;DHT22;50313;52.894;6.492;2023-06-04T09:51:17;20.10;75.40
60309;DHT22;50313;52.894;6.492;2023-06-04T09:53:59;19.90;72.00
60309;DHT22;50313;52.894;6.492;2023-06-04T09:56:38;20.00;70.50
60309;DHT22;50313;52.894;6.492;2023-06-04T09:59:08;20.10;73.00
60309;DHT22;50313;52.894;6.492;2023-06-04T10:01:38;20.20;69.30
60309;DHT22;50313;52.894;6.492;2023-06-04T10:04:07;20.20;69.20
60309;DHT22;50313;52.894;6.492;2023-06-04T10:06:35;19.90;69.30
60309;DHT22;50313;52.894;6.492;2023-06-04T10:09:11;19.90;71.70
60309;DHT22;50313;52.894;6.492;2023-06-04T10:11:52;20.00;65.80
60309;DHT22;50313;52.894;6.492;2023-06-04T10:14:25;19.80;66.00
60309;DHT22;50313;52.894;6.492;2023-06-04T10:16:57;20.10;66.50
60309;DHT22;50313;52.894;6.492;2023-06-04T10:19:26;20.30;63.10
60309;DHT22;50313;52.894;6.492;2023-06-04T10:21:53;20.00;62.40
60309;DHT22;50313;52.894;6.492;2023-06-04T10:24:22;20.40;62.00
60309;DHT22;50313;52.894;6.492;2023-06-04T10:26:57;20.40;62.60
60309;DHT22;50313;52.894;6.492;2023-06-04T10:29:26;20.50;64.90
60309;DHT22;50313;52.894;6.492;2023-06-04T10:31:57;20.40;67.50
60309;DHT22;50313;52.894;6.492;2023-06-04T10:34:25;20.50;69.40
60309;DHT22;50313;52.894;6.492;2023-06-04T10:36:55;20.80;68.10
60309;DHT22;50313;52.894;6.492;2023-06-04T10:42:23;21.00;65.80
60309;DHT22;50313;52.894;6.492;2023-06-04T10:44:53;21.20;68.80
60309;DHT22;50313;52.894;6.492;2023-06-04T10:47:29;21.10;66.70
60309;DHT22;50313;52.894;6.492;2023-06-04T10:50:13;21.10;63.80
60309;DHT22;50313;52.894;6.492;2023-06-04T10:53:00;21.30;62.40
60309;DHT22;50313;52.894;6.492;2023-06-04T10:55:42;21.60;64.00
60309;DHT22;50313;52.894;6.492;2023-06-04T10:58:11;21.40;65.10
60309;DHT22;50313;52.894;6.492;2023-06-04T11:00:42;21.70;65.60
60309;DHT22;50313;52.894;6.492;2023-06-04T11:03:17;22.00;63.30
60309;DHT22;50313;52.894;6.492;2023-06-04T11:05:46;22.10;63.90
60309;DHT22;50313;52.894;6.492;2023-06-04T11:08:26;21.60;65.20
60309;DHT22;50313;52.894;6.492;2023-06-04T11:10:56;21.40;66.00
60309;DHT22;50313;52.894;6.492;2023-06-04T11:13:25;21.50;69.70
60309;DHT22;50313;52.894;6.492;2023-06-04T11:15:51;22.00;66.80
60309;DHT22;50313;52.894;6.492;2023-06-04T11:18:21;22.00;67.80
60309;DHT22;50313;52.894;6.492;2023-06-04T11:20:59;21.90;64.80
60309;DHT22;50313;52.894;6.492;2023-06-04T11:23:25;22.00;64.10
60309;DHT22;50313;52.894;6.492;2023-06-04T11:25:57;21.90;63.50
60309;DHT22;50313;52.894;6.492;2023-06-04T11:28:25;21.50;65.40
60309;DHT22;50313;52.894;6.492;2023-06-04T11:31:01;21.50;64.10
60309;DHT22;50313;52.894;6.492;2023-06-04T11:33:58;21.60;66.10
60309;DHT22;50313;52.894;6.492;2023-06-04T11:36:24;21.90;66.80
60309;DHT22;50313;52.894;6.492;2023-06-04T11:38:57;21.90;61.60
60309;DHT22;50313;52.894;6.492;2023-06-04T11:41:24;22.10;61.80
60309;DHT22;50313;52.894;6.492;2023-06-04T11:43:52;22.20;65.80
60309;DHT22;50313;52.894;6.492;2023-06-04T11:46:19;22.30;63.30
60309;DHT22;50313;52.894;6.492;2023-06-04T11:48:51;22.40;63.40
60309;DHT22;50313;52.894;6.492;2023-06-04T11:51:28;22.10;62.70
60309;DHT22;50313;52.894;6.492;2023-06-04T11:54:02;21.80;60.00
60309;DHT22;50313;52.894;6.492;2023-06-04T11:56:31;21.70;63.30
60309;DHT22;50313;52.894;6.492;2023-06-04T11:58:59;21.80;61.00
60309;DHT22;50313;52.894;6.492;2023-06-04T12:01:27;22.20;63.00
60309;DHT22;50313;52.894;6.492;2023-06-04T12:03:58;22.00;60.00
60309;DHT22;50313;52.894;6.492;2023-06-04T12:06:27;22.50;62.30
60309;DHT22;50313;52.894;6.492;2023-06-04T12:08:54;22.60;61.50
60309;DHT22;50313;52.894;6.492;2023-06-04T12:11:30;22.70;60.50
60309;DHT22;50313;52.894;6.492;2023-06-04T12:14:04;22.70;60.10
60309;DHT22;50313;52.894;6.492;2023-06-04T12:16:31;22.30;60.00
60309;DHT22;50313;52.894;6.492;2023-06-04T12:19:09;22.40;61.40
60309;DHT22;50313;52.894;6.492;2023-06-04T12:21:41;22.10;60.00
60309;DHT22;50313;52.894;6.492;2023-06-04T12:24:17;21.90;59.30
60309;DHT22;50313;52.894;6.492;2023-06-04T12:26:46;21.80;60.80
60309;DHT22;50313;52.894;6.492;2023-06-04T12:29:30;22.10;63.00
60309;DHT22;50313;52.894;6.492;2023-06-04T12:32:07;22.10;62.50
60309;DHT22;50313;52.894;6.492;2023-06-04T12:34:37;21.90;65.20
60309;DHT22;50313;52.894;6.492;2023-06-04T12:37:06;22.00;62.80
60309;DHT22;50313;52.894;6.492;2023-06-04T12:39:33;22.30;64.00
60309;DHT22;50313;52.894;6.492;2023-06-04T12:42:05;22.60;66.60
60309;DHT22;50313;52.894;6.492;2023-06-04T12:44:38;22.40;62.40
60309;DHT22;50313;52.894;6.492;2023-06-04T12:47:09;22.10;62.10
60309;DHT22;50313;52.894;6.492;2023-06-04T12:49:42;22.10;64.40
60309;DHT22;50313;52.894;6.492;2023-06-04T12:52:10;22.40;61.80
60309;DHT22;50313;52.894;6.492;2023-06-04T12:54:45;22.50;61.90
60309;DHT22;50313;52.894;6.492;2023-06-04T12:57:11;22.80;63.60
60309;DHT22;50313;52.894;6.492;2023-06-04T12:59:37;22.80;65.50
60309;DHT22;50313;52.894;6.492;2023-06-04T13:02:03;23.00;61.80
60309;DHT22;50313;52.894;6.492;2023-06-04T13:04:31;22.90;62.80
60309;DHT22;50313;52.894;6.492;2023-06-04T13:06:57;23.00;62.40
60309;DHT22;50313;52.894;6.492;2023-06-04T13:09:25;23.10;62.90
60309;DHT22;50313;52.894;6.492;2023-06-04T13:11:57;23.00;62.60
60309;DHT22;50313;52.894;6.492;2023-06-04T13:14:23;22.90;62.20
60309;DHT22;50313;52.894;6.492;2023-06-04T13:16:49;23.00;63.40
60309;DHT22;50313;52.894;6.492;2023-06-04T13:19:18;23.00;62.30
60309;DHT22;50313;52.894;6.492;2023-06-04T13:21:46;23.00;60.50
60309;DHT22;50313;52.894;6.492;2023-06-04T13:24:20;23.10;61.70
60309;DHT22;50313;52.894;6.492;2023-06-04T13:26:45;23.30;62.10
60309;DHT22;50313;52.894;6.492;2023-06-04T13:29:20;23.60;62.20
60309;DHT22;50313;52.894;6.492;2023-06-04T13:31:51;23.40;64.10
60309;DHT22;50313;52.894;6.492;2023-06-04T13:34:20;23.40;62.40
60309;DHT22;50313;52.894;6.492;2023-06-04T13:36:45;23.40;62.20
60309;DHT22;50313;52.894;6.492;2023-06-04T13:39:19;23.00;64.00
60309;DHT22;50313;52.894;6.492;2023-06-04T13:41:53;23.40;63.60
60309;DHT22;50313;52.894;6.492;2023-06-04T13:44:22;22.90;63.70
60309;DHT22;50313;52.894;6.492;2023-06-04T13:46:52;23.10;61.90
60309;DHT22;50313;52.894;6.492;2023-06-04T13:49:17;23.00;62.80
60309;DHT22;50313;52.894;6.492;2023-06-04T13:51:43;22.90;63.70
60309;DHT22;50313;52.894;6.492;2023-06-04T13:54:11;22.70;64.90
60309;DHT22;50313;52.894;6.492;2023-06-04T13:56:40;23.10;63.40
60309;DHT22;50313;52.894;6.492;2023-06-04T13:59:05;23.20;64.20
60309;DHT22;50313;52.894;6.492;2023-06-04T14:01:32;22.90;63.00
60309;DHT22;50313;52.894;6.492;2023-06-04T14:03:57;23.30;62.40
60309;DHT22;50313;52.894;6.492;2023-06-04T14:06:27;23.30;61.90
60309;DHT22;50313;52.894;6.492;2023-06-04T14:08:53;23.20;62.70
60309;DHT22;50313;52.894;6.492;2023-06-04T14:11:41;23.40;63.70
60309;DHT22;50313;52.894;6.492;2023-06-04T14:14:15;23.40;62.50
60309;DHT22;50313;52.894;6.492;2023-06-04T14:17:16;23.60;62.30
60309;DHT22;50313;52.894;6.492;2023-06-04T14:19:41;23.40;62.40
60309;DHT22;50313;52.894;6.492;2023-06-04T14:22:07;23.40;63.70
60309;DHT22;50313;52.894;6.492;2023-06-04T14:24:54;23.50;62.30
60309;DHT22;50313;52.894;6.492;2023-06-04T14:27:32;24.20;63.90
60309;DHT22;50313;52.894;6.492;2023-06-04T14:30:02;24.20;63.40
60309;DHT22;50313;52.894;6.492;2023-06-04T14:32:29;24.30;62.30
60309;DHT22;50313;52.894;6.492;2023-06-04T14:34:57;24.00;61.80
60309;DHT22;50313;52.894;6.492;2023-06-04T14:37:33;24.10;61.30
60309;DHT22;50313;52.894;6.492;2023-06-04T14:40:02;24.00;61.20
60309;DHT22;50313;52.894;6.492;2023-06-04T14:42:30;24.50;62.50
60309;DHT22;50313;52.894;6.492;2023-06-04T14:45:04;24.40;60.70
60309;DHT22;50313;52.894;6.492;2023-06-04T14:50:33;24.40;61.00
60309;DHT22;50313;52.894;6.492;2023-06-04T14:53:01;24.70;60.70
60309;DHT22;50313;52.894;6.492;2023-06-04T14:55:32;24.80;62.50
60309;DHT22;50313;52.894;6.492;2023-06-04T14:58:08;24.20;60.40
60309;DHT22;50313;52.894;6.492;2023-06-04T15:00:42;24.30;61.20
60309;DHT22;50313;52.894;6.492;2023-06-04T15:03:28;24.00;62.40
60309;DHT22;50313;52.894;6.492;2023-06-04T15:05:57;24.10;62.50
60309;DHT22;50313;52.894;6.492;2023-06-04T15:08:29;24.20;62.10
60309;DHT22;50313;52.894;6.492;2023-06-04T15:11:01;23.90;60.80
60309;DHT22;50313;52.894;6.492;2023-06-04T15:13:35;24.60;60.50
60309;DHT22;50313;52.894;6.492;2023-06-04T15:16:17;25.10;59.10
60309;DHT22;50313;52.894;6.492;2023-06-04T15:18:54;24.60;59.50
60309;DHT22;50313;52.894;6.492;2023-06-04T15:21:27;24.70;60.50
60309;DHT22;50313;52.894;6.492;2023-06-04T15:26:49;24.40;60.60
60309;DHT22;50313;52.894;6.492;2023-06-04T15:29:19;24.50;61.50
60309;DHT22;50313;52.894;6.492;2023-06-04T15:31:52;24.10;61.60
60309;DHT22;50313;52.894;6.492;2023-06-04T15:34:27;24.80;61.90
60309;DHT22;50313;52.894;6.492;2023-06-04T15:36:59;24.30;61.90
60309;DHT22;50313;52.894;6.492;2023-06-04T15:39:25;24.50;62.00
60309;DHT22;50313;52.894;6.492;2023-06-04T15:42:03;24.20;61.40
60309;DHT22;50313;52.894;6.492;2023-06-04T15:44:42;24.50;61.70
60309;DHT22;50313;52.894;6.492;2023-06-04T15:47:10;24.40;61.20
60309;DHT22;50313;52.894;6.492;2023-06-04T15:49:36;24.60;62.40
60309;DHT22;50313;52.894;6.492;2023-06-04T15:52:04;24.40;61.90
60309;DHT22;50313;52.894;6.492;2023-06-04T15:54:51;24.70;61.60
60309;DHT22;50313;52.894;6.492;2023-06-04T15:57:28;24.90;61.20
60309;DHT22;50313;52.894;6.492;2023-06-04T15:59:56;25.00;59.20
60309;DHT22;50313;52.894;6.492;2023-06-04T16:02:28;25.10;59.20
60309;DHT22;50313;52.894;6.492;2023-06-04T16:04:54;25.20;60.60
60309;DHT22;50313;52.894;6.492;2023-06-04T16:07:28;24.60;59.30
60309;DHT22;50313;52.894;6.492;2023-06-04T16:13:23;24.60;60.50